Heart's Content, Canada
Current Conditions -  °F | °C
As of 11:15 AM on Saturday 25 Oct 2014 (Local Time) from CYYT Reporting Station
Rain Showers Rain Showers  
Wind Chill: 41°   Ceiling: 200
Heat Index: 46°   Visibility: 0.25mi
Dew Point: 46°   Wind: 12mph
Humidity: 100%   Direction: 50°NE
Pressure: 29.43"   Gusts: NA
Location:  47.87°N, 53.37°W
Report Text: CYYT 251315Z 05010KT 1/4SM R11/2600V4000FT/D -SHRA FG VV002 08/08 A2943 RMK FG8 SLP970
Loading
Personal Weather Stations






























Interactive Weather Map
Tropical Storm Tracking
New forecast layout! Learn more

10-Day Weather Forecast

Advertisements
Track Severe Weather on mobile